Terminal Aerodrome Forecast
Issued by NWS Dodge City, KS

Home | Current Version | Previous Version | Graphics & Text | Print | Product List | Glossary Off
Versions: 1 2 3 4 5 6 7 8 9 10 11 12 13 14 15 16 17 18 19 20 21 22 23 24 25 26 27 28 29 30 31 32 33 34 35 36 37 38 39 40

459
FTUS43 KDDC 071136
TAFDDC
TAF
KDDC 071136Z 0712/0812 09010KT P6SM OVC040
     FM071600 07012KT P6SM OVC040
      TEMPO 0716/0720 3SM -SN BKN020
     FM072000 04015G25KT P6SM OVC030
     FM080000 01010KT P6SM BKN040=

USA.gov is the U.S. government's official web portal to all federal, state and local government web resources and services.